createdAt,value
2018-03-29T00:01:01.738Z,96175.45
2018-03-29T00:03:32.697Z,96180.51
2018-03-29T00:08:40.705Z,96185.44
2018-03-29T00:11:11.727Z,96186.84
2018-03-29T00:13:42.745Z,96191.52
2018-03-29T00:16:13.772Z,96198.45
2018-03-29T00:18:44.756Z,96196.48
2018-03-29T00:21:15.761Z,96200.09
2018-03-29T00:23:46.773Z,96199.05
2018-03-29T00:26:17.788Z,96203.02
2018-03-29T00:28:48.773Z,96206.88
2018-03-29T00:31:19.751Z,96213.22
2018-03-29T00:33:50.753Z,96212.69
2018-03-29T00:36:21.753Z,96221.17
2018-03-29T00:38:52.784Z,96218.45
2018-03-29T00:41:23.753Z,96218.64
2018-03-29T00:43:54.736Z,96219.56
2018-03-29T00:46:25.723Z,96226.70
2018-03-29T00:48:56.679Z,96230.03
2018-03-29T00:51:27.661Z,96234.58
2018-03-29T00:53:58.634Z,96230.56
2018-03-29T00:56:29.644Z,96235.11
2018-03-29T00:59:00.604Z,96235.23
2018-03-29T01:01:31.573Z,96228.58
2018-03-29T01:04:02.617Z,96240.45
2018-03-29T01:06:33.569Z,96248.73
2018-03-29T01:09:04.573Z,96258.61
2018-03-29T01:11:35.522Z,96265.11
2018-03-29T01:14:06.564Z,96269.94
2018-03-29T01:16:37.565Z,96289.86
2018-03-29T01:19:08.589Z,96298.59
2018-03-29T01:21:39.624Z,96306.42
2018-03-29T01:24:10.588Z,96313.62
2018-03-29T01:26:41.556Z,96331.50
2018-03-29T01:29:12.489Z,96325.98
2018-03-29T01:31:43.486Z,96331.50
2018-03-29T01:34:14.476Z,96332.73
2018-03-29T01:36:45.484Z,96338.02
2018-03-29T01:39:16.503Z,96362.14
2018-03-29T01:41:47.510Z,96353.10
2018-03-29T01:44:18.480Z,96364.02
2018-03-29T01:46:49.463Z,96372.69
2018-03-29T01:49:20.451Z,96374.53
2018-03-29T01:51:51.467Z,96368.35
2018-03-29T01:54:22.451Z,96381.91
2018-03-29T01:56:53.458Z,96378.80
2018-03-29T01:59:24.443Z,96387.77
2018-03-29T02:01:55.434Z,96387.41
2018-03-29T02:04:26.387Z,96394.09
2018-03-29T02:06:57.351Z,96397.14
2018-03-29T02:09:28.382Z,96407.25
2018-03-29T02:11:59.390Z,96419.84
2018-03-29T02:14:30.395Z,96417.73
2018-03-29T02:17:01.427Z,96427.61
2018-03-29T02:19:32.425Z,96440.20
2018-03-29T02:22:03.411Z,96438.77
2018-03-29T02:24:38.403Z,96439.03
2018-03-29T02:27:09.426Z,96436.92
2018-03-29T02:29:40.387Z,96448.87
2018-03-29T02:32:11.449Z,96443.74
2018-03-29T02:34:42.454Z,96448.19
2018-03-29T02:37:13.518Z,96445.16
2018-03-29T02:39:44.483Z,96447.78
2018-03-29T02:42:15.456Z,96439.36
2018-03-29T02:44:46.437Z,96446.83
2018-03-29T02:47:17.438Z,96452.97
2018-03-29T02:49:48.420Z,96449.66
2018-03-29T02:52:19.376Z,96459.73
2018-03-29T02:54:50.343Z,96462.19
2018-03-29T02:57:21.371Z,96470.66
2018-03-29T02:59:52.379Z,96473.00
2018-03-29T03:02:23.405Z,96463.33
2018-03-29T03:04:54.398Z,96461.80
2018-03-29T03:07:25.404Z,96471.55
2018-03-29T03:09:56.387Z,96483.22
2018-03-29T03:12:27.347Z,96489.68
2018-03-29T03:14:58.307Z,96488.30
2018-03-29T03:17:36.332Z,96496.97
2018-03-29T03:20:07.350Z,96493.05
2018-03-29T03:22:38.300Z,96494.72
2018-03-29T03:25:09.268Z,96501.81
2018-03-29T03:27:40.251Z,96503.23
2018-03-29T03:30:11.276Z,96512.55
2018-03-29T03:32:42.307Z,96522.09
2018-03-29T03:35:13.273Z,96526.73
2018-03-29T03:37:44.254Z,96522.24
2018-03-29T03:40:15.239Z,96526.52
2018-03-29T03:42:46.257Z,96530.14
2018-03-29T03:45:17.265Z,96540.19
2018-03-29T03:47:48.235Z,96549.69
2018-03-29T03:50:19.230Z,96556.84
2018-03-29T03:52:50.241Z,96548.86
2018-03-29T03:55:21.217Z,96557.20
2018-03-29T03:57:52.227Z,96552.38
2018-03-29T04:00:23.213Z,96562.88
2018-03-29T04:02:54.204Z,96562.84
2018-03-29T04:05:25.185Z,96568.02
2018-03-29T04:07:56.180Z,96575.56
2018-03-29T04:10:27.183Z,96580.91
2018-03-29T04:12:58.146Z,96584.14
2018-03-29T04:15:29.119Z,96587.53
2018-03-29T04:18:00.052Z,96593.63
2018-03-29T04:20:31.080Z,96594.41
2018-03-29T04:23:02.094Z,96594.75
2018-03-29T04:25:33.093Z,96590.95
2018-03-29T04:28:04.125Z,96590.50
2018-03-29T04:30:35.117Z,96591.39
2018-03-29T04:33:06.109Z,96593.14
2018-03-29T04:35:37.125Z,96590.41
2018-03-29T04:38:08.103Z,96591.66
2018-03-29T04:40:39.080Z,96590.86
2018-03-29T04:43:10.076Z,96593.08
2018-03-29T04:45:41.095Z,96599.19
2018-03-29T04:48:12.036Z,96597.27
2018-03-29T04:50:43.045Z,96594.55
2018-03-29T04:53:13.976Z,96603.00
2018-03-29T04:55:44.994Z,96604.06
2018-03-29T04:58:16.025Z,96601.28
2018-03-29T05:00:47.030Z,96606.91
2018-03-29T05:03:18.046Z,96609.97
2018-03-29T05:05:49.077Z,96612.13
2018-03-29T05:08:20.093Z,96611.61
2018-03-29T05:10:51.078Z,96619.67
2018-03-29T05:13:22.071Z,96614.62
2018-03-29T05:15:53.068Z,96615.38
2018-03-29T05:18:24.033Z,96611.98
2018-03-29T05:20:55.017Z,96614.82
2018-03-29T05:23:25.989Z,96617.85
2018-03-29T05:26:03.098Z,96624.84
2018-03-29T05:28:34.051Z,96632.55
2018-03-29T05:31:05.032Z,96641.09
2018-03-29T05:33:36.000Z,96643.38
2018-03-29T05:36:06.975Z,96635.88
2018-03-29T05:38:37.949Z,96640.30
2018-03-29T05:41:08.950Z,96646.51
2018-03-29T05:43:39.935Z,96644.11
2018-03-29T05:46:10.907Z,96647.98
2018-03-29T05:48:41.901Z,96648.10
2018-03-29T05:51:12.879Z,96660.05
2018-03-29T05:53:43.884Z,96667.89
2018-03-29T05:56:14.877Z,96670.69
2018-03-29T05:58:45.848Z,96668.54
2018-03-29T06:01:16.836Z,96671.55
2018-03-29T06:03:47.785Z,96675.07
2018-03-29T06:06:18.773Z,96677.53
2018-03-29T06:08:49.772Z,96676.78
2018-03-29T06:11:20.779Z,96671.88
2018-03-29T06:13:57.968Z,96666.48
2018-03-29T06:16:29.005Z,96674.28
2018-03-29T06:19:06.057Z,96672.06
2018-03-29T06:21:37.038Z,96673.92
2018-03-29T06:24:08.138Z,96677.61
2018-03-29T06:26:39.146Z,96683.56
2018-03-29T06:29:10.095Z,96689.56
2018-03-29T06:31:41.055Z,96691.98
2018-03-29T06:34:12.031Z,96702.34
2018-03-29T06:36:43.029Z,96700.57
2018-03-29T06:39:14.032Z,96696.75
2018-03-29T06:41:45.038Z,96703.13
2018-03-29T06:44:16.032Z,96705.04
2018-03-29T06:46:47.033Z,96712.78
2018-03-29T06:49:18.015Z,96705.53
2018-03-29T06:51:49.012Z,96706.20
2018-03-29T06:54:20.000Z,96709.50
2018-03-29T06:56:51.054Z,96719.62
2018-03-29T06:59:21.999Z,96715.27
2018-03-29T07:01:52.988Z,96714.86
2018-03-29T07:04:23.976Z,96723.06
2018-03-29T07:06:55.025Z,96727.67
2018-03-29T07:09:26.022Z,96727.95
2018-03-29T07:11:57.012Z,96726.73
2018-03-29T07:14:28.005Z,96732.09
2018-03-29T07:16:59.024Z,96728.95
2018-03-29T07:19:30.012Z,96719.32
2018-03-29T07:22:01.013Z,96694.02
2018-03-29T07:24:32.015Z,96679.76
2018-03-29T07:27:03.052Z,96678.34
2018-03-29T07:29:34.057Z,96686.01
2018-03-29T07:32:05.018Z,96667.67
2018-03-29T07:34:36.007Z,96676.95
2018-03-29T07:37:07.013Z,96680.67
2018-03-29T07:39:38.027Z,96677.19
2018-03-29T07:42:08.991Z,96681.31
2018-03-29T07:44:39.968Z,96682.42
2018-03-29T07:47:11.003Z,96681.27
2018-03-29T07:49:41.940Z,96693.66
2018-03-29T07:52:12.906Z,96683.74
2018-03-29T07:54:43.894Z,96684.34
2018-03-29T07:57:14.859Z,96680.59
2018-03-29T07:59:45.831Z,96684.55
2018-03-29T08:02:16.802Z,96688.66
2018-03-29T08:04:47.776Z,96691.48
2018-03-29T08:07:18.800Z,96702.58
2018-03-29T08:09:49.755Z,96704.98
2018-03-29T08:12:20.770Z,96704.88
2018-03-29T08:14:51.744Z,96711.52
2018-03-29T08:17:22.751Z,96716.04
2018-03-29T08:19:53.766Z,96715.40
2018-03-29T08:22:24.778Z,96715.94
2018-03-29T08:24:55.792Z,96708.75
2018-03-29T08:27:26.832Z,96719.23
2018-03-29T08:29:57.825Z,96717.75
2018-03-29T08:32:28.874Z,96720.71
2018-03-29T08:34:59.846Z,96714.53
2018-03-29T08:37:30.829Z,96708.45
2018-03-29T08:40:01.833Z,96698.83
2018-03-29T08:42:32.816Z,96691.37
2018-03-29T08:45:03.809Z,96692.53
2018-03-29T08:47:34.788Z,96694.41
2018-03-29T08:50:05.783Z,96691.13
2018-03-29T08:52:36.747Z,96701.34
2018-03-29T08:55:07.764Z,96710.98
2018-03-29T08:57:38.806Z,96707.63
2018-03-29T09:00:09.804Z,96705.67
2018-03-29T09:02:40.825Z,96705.30
2018-03-29T09:05:11.821Z,96702.66
2018-03-29T09:07:42.769Z,96703.78
2018-03-29T09:10:13.819Z,96698.30
2018-03-29T09:12:44.777Z,96692.18
2018-03-29T09:15:15.797Z,96695.39
2018-03-29T09:17:46.769Z,96699.64
2018-03-29T09:20:17.760Z,96710.55
2018-03-29T09:22:48.811Z,96710.27
2018-03-29T09:25:19.808Z,96704.29
2018-03-29T09:27:50.809Z,96714.98
2018-03-29T09:30:21.961Z,96713.83
2018-03-29T09:32:52.953Z,96716.80
2018-03-29T09:35:23.919Z,96717.53
2018-03-29T09:37:54.915Z,96715.98
2018-03-29T09:40:32.890Z,96725.56
2018-03-29T09:43:03.918Z,96731.95
2018-03-29T09:45:34.892Z,96730.39
2018-03-29T09:48:05.934Z,96740.20
2018-03-29T09:50:36.892Z,96741.25
2018-03-29T09:53:07.874Z,96745.02
2018-03-29T09:55:38.851Z,96750.12
2018-03-29T09:58:09.844Z,96749.74
2018-03-29T10:00:40.863Z,96725.26
2018-03-29T10:03:11.952Z,96714.80
2018-03-29T10:05:42.899Z,96710.77
2018-03-29T10:08:13.904Z,96706.95
2018-03-29T10:10:44.885Z,96711.20
2018-03-29T10:13:15.881Z,96698.03
2018-03-29T10:15:46.831Z,96685.16
2018-03-29T10:18:17.843Z,96689.89
2018-03-29T10:20:48.841Z,96694.66
2018-03-29T10:23:19.816Z,96705.86
2018-03-29T10:25:50.809Z,96697.27
2018-03-29T10:28:21.801Z,96690.87
2018-03-29T10:30:52.766Z,96693.61
2018-03-29T10:33:23.760Z,96688.28
2018-03-29T10:35:54.723Z,96684.17
2018-03-29T10:38:25.748Z,96677.56
2018-03-29T10:40:56.782Z,96675.55
2018-03-29T10:43:27.777Z,96674.19
2018-03-29T10:45:58.772Z,96672.06
2018-03-29T10:48:29.789Z,96669.80
2018-03-29T10:51:00.762Z,96664.95
2018-03-29T10:53:31.756Z,96663.69
2018-03-29T10:56:02.818Z,96651.91
2018-03-29T10:58:33.817Z,96638.40
2018-03-29T11:01:04.840Z,96633.99
2018-03-29T11:03:35.813Z,96641.82
2018-03-29T11:06:06.783Z,96631.78
2018-03-29T11:08:37.797Z,96639.40
2018-03-29T11:11:08.809Z,96639.17
2018-03-29T11:13:39.819Z,96649.63
2018-03-29T11:16:10.821Z,96651.50
2018-03-29T11:18:41.836Z,96647.20
2018-03-29T11:21:12.795Z,96646.87
2018-03-29T11:23:43.730Z,96650.86
2018-03-29T11:26:14.709Z,96646.50
2018-03-29T11:28:45.704Z,96654.94
2018-03-29T11:31:16.732Z,96642.95
2018-03-29T11:33:47.713Z,96636.70
2018-03-29T11:36:18.684Z,96640.64
2018-03-29T11:38:49.718Z,96650.34
2018-03-29T11:41:20.680Z,96652.48
2018-03-29T11:43:51.665Z,96642.86
2018-03-29T11:46:22.615Z,96647.05
2018-03-29T11:48:53.571Z,96646.34
2018-03-29T11:51:24.520Z,96645.37
2018-03-29T11:53:55.525Z,96642.45
2018-03-29T11:56:26.461Z,96632.89
2018-03-29T11:58:57.495Z,96631.09
2018-03-29T12:01:28.485Z,96623.27
2018-03-29T12:03:59.469Z,96627.16
2018-03-29T12:06:30.415Z,96619.48
2018-03-29T12:09:01.392Z,96616.56
2018-03-29T12:11:32.361Z,96621.06
2018-03-29T12:14:03.361Z,96624.77
2018-03-29T12:16:34.351Z,96629.73
2018-03-29T12:19:05.337Z,96624.09
2018-03-29T12:21:36.346Z,96622.80
2018-03-29T12:24:07.288Z,96611.53
2018-03-29T12:26:38.283Z,96615.58
2018-03-29T12:29:09.232Z,96617.34
2018-03-29T12:31:40.217Z,96613.81
2018-03-29T12:34:11.179Z,96608.45
2018-03-29T12:36:42.158Z,96615.50
2018-03-29T12:39:13.168Z,96621.48
2018-03-29T12:41:44.128Z,96621.94
2018-03-29T12:44:15.109Z,96617.06
2018-03-29T12:46:46.050Z,96622.47
2018-03-29T12:49:17.054Z,96612.14
2018-03-29T12:51:48.039Z,96601.47
2018-03-29T12:54:19.037Z,96601.80
2018-03-29T12:57:02.404Z,96601.58
2018-03-29T12:59:33.410Z,96598.59
2018-03-29T13:02:04.416Z,96601.18
2018-03-29T13:04:35.387Z,96610.14
2018-03-29T13:07:06.383Z,96607.23
2018-03-29T13:09:37.375Z,96603.55
2018-03-29T13:12:08.426Z,96596.68
2018-03-29T13:14:39.428Z,96595.12
2018-03-29T13:17:10.427Z,96588.48
2018-03-29T13:19:41.421Z,96587.52
2018-03-29T13:22:12.386Z,96590.63
2018-03-29T13:24:43.360Z,96588.03
2018-03-29T13:27:14.336Z,96597.59
2018-03-29T13:29:45.300Z,96597.35
2018-03-29T13:32:16.293Z,96592.91
2018-03-29T13:34:47.302Z,96592.27
2018-03-29T13:37:18.252Z,96575.03
2018-03-29T13:39:49.219Z,96577.64
2018-03-29T13:42:20.230Z,96570.78
2018-03-29T13:44:51.257Z,96569.34
2018-03-29T13:47:22.278Z,96569.72
2018-03-29T13:49:53.240Z,96570.97
2018-03-29T13:52:24.227Z,96576.14
2018-03-29T13:54:55.233Z,96566.42
2018-03-29T13:57:26.215Z,96575.92
2018-03-29T13:59:57.272Z,96569.44
2018-03-29T14:02:28.260Z,96558.55
2018-03-29T14:04:59.245Z,96546.45
2018-03-29T14:07:30.220Z,96540.13
2018-03-29T14:10:01.248Z,96537.95
2018-03-29T14:12:32.285Z,96540.69
2018-03-29T14:15:03.267Z,96530.00
2018-03-29T14:17:34.235Z,96529.41
2018-03-29T14:20:05.268Z,96526.39
2018-03-29T14:22:36.237Z,96524.45
2018-03-29T14:25:07.250Z,96532.83
2018-03-29T14:27:38.253Z,96540.45
2018-03-29T14:30:09.318Z,96540.06
2018-03-29T14:32:40.323Z,96538.41
2018-03-29T14:35:11.316Z,96532.77
2018-03-29T14:37:42.382Z,96526.91
2018-03-29T14:40:13.369Z,96528.38
2018-03-29T14:42:44.427Z,96536.23
2018-03-29T14:45:15.449Z,96539.27
2018-03-29T14:47:46.560Z,96543.32
2018-03-29T14:50:17.574Z,96553.80
2018-03-29T14:52:48.628Z,96556.13
2018-03-29T14:55:19.638Z,96550.86
2018-03-29T14:57:50.623Z,96546.00
2018-03-29T15:00:21.571Z,96552.09
2018-03-29T15:02:52.527Z,96555.39
2018-03-29T15:05:23.596Z,96556.34
2018-03-29T15:07:54.638Z,96549.16
2018-03-29T15:10:25.664Z,96562.06
2018-03-29T15:12:56.655Z,96562.00
2018-03-29T15:15:27.641Z,96555.72
2018-03-29T15:17:58.619Z,96563.38
2018-03-29T15:20:29.599Z,96561.01
2018-03-29T15:23:00.631Z,96566.62
2018-03-29T15:25:31.625Z,96560.63
2018-03-29T15:28:03.369Z,96557.34
2018-03-29T15:30:34.432Z,96561.83
2018-03-29T15:33:05.417Z,96554.31
2018-03-29T15:35:36.413Z,96560.39
2018-03-29T15:38:07.365Z,96553.24
2018-03-29T15:40:38.397Z,96552.28
2018-03-29T15:43:09.406Z,96558.89
2018-03-29T15:45:40.489Z,96566.99
2018-03-29T15:48:11.538Z,96554.69
2018-03-29T15:50:42.563Z,96561.08
2018-03-29T15:53:13.554Z,96556.31
2018-03-29T15:55:44.550Z,96556.72
2018-03-29T15:58:15.527Z,96556.27
2018-03-29T16:00:46.542Z,96551.22
2018-03-29T16:03:18.961Z,96561.70
2018-03-29T16:05:49.937Z,96567.02
2018-03-29T16:08:20.939Z,96570.97
2018-03-29T16:10:51.966Z,96574.23
2018-03-29T16:13:22.989Z,96569.56
2018-03-29T16:15:53.959Z,96570.08
2018-03-29T16:18:25.011Z,96581.54
2018-03-29T16:20:56.018Z,96579.84
2018-03-29T16:23:27.045Z,96587.76
2018-03-29T16:25:58.026Z,96579.02
2018-03-29T16:28:29.028Z,96578.85
2018-03-29T16:31:00.022Z,96577.93
2018-03-29T16:33:31.018Z,96577.25
2018-03-29T16:36:02.027Z,96581.62
2018-03-29T16:38:33.015Z,96584.80
2018-03-29T16:41:04.029Z,96580.04
2018-03-29T16:43:34.998Z,96585.47
2018-03-29T16:46:06.000Z,96581.27
2018-03-29T16:48:37.081Z,96579.37
2018-03-29T16:51:08.557Z,96586.09
2018-03-29T16:53:39.524Z,96583.65
2018-03-29T16:56:10.510Z,96581.34
2018-03-29T16:58:41.508Z,96589.66
2018-03-29T17:01:12.527Z,96596.13
2018-03-29T17:03:43.539Z,96597.57
2018-03-29T17:06:14.544Z,96599.33
2018-03-29T17:08:52.548Z,96601.40
2018-03-29T17:11:23.541Z,96606.37
2018-03-29T17:13:54.558Z,96613.41
2018-03-29T17:16:25.549Z,96616.66
2018-03-29T17:18:56.517Z,96616.09
2018-03-29T17:21:27.560Z,96626.97
2018-03-29T17:23:59.454Z,96630.03
2018-03-29T17:26:30.466Z,96634.13
2018-03-29T17:29:01.542Z,96631.34
2018-03-29T17:31:32.669Z,96633.45
2018-03-29T17:34:03.714Z,96628.75
2018-03-29T17:36:34.738Z,96630.67
2018-03-29T17:39:05.795Z,96630.15
2018-03-29T17:41:36.838Z,96636.70
2018-03-29T17:44:07.816Z,96640.33
2018-03-29T17:46:38.826Z,96646.45
2018-03-29T17:49:09.809Z,96650.19
2018-03-29T17:51:40.795Z,96649.81
2018-03-29T17:54:11.796Z,96649.51
2018-03-29T17:56:42.887Z,96657.47
2018-03-29T17:59:14.877Z,96653.30
2018-03-29T18:01:45.889Z,96654.97
2018-03-29T18:04:16.878Z,96665.33
2018-03-29T18:06:47.905Z,96668.92
2018-03-29T18:09:18.943Z,96665.70
2018-03-29T18:11:49.952Z,96672.03
2018-03-29T18:14:20.991Z,96678.17
2018-03-29T18:16:51.999Z,96675.95
2018-03-29T18:19:22.992Z,96688.75
2018-03-29T18:21:54.011Z,96691.27
2018-03-29T18:24:25.026Z,96694.45
2018-03-29T18:26:56.033Z,96704.05
2018-03-29T18:29:27.686Z,96704.73
2018-03-29T18:31:58.724Z,96711.58
2018-03-29T18:34:29.822Z,96719.50
2018-03-29T18:37:00.873Z,96718.70
2018-03-29T18:39:31.831Z,96716.73
2018-03-29T18:42:02.856Z,96723.30
2018-03-29T18:44:33.856Z,96722.63
2018-03-29T18:47:04.867Z,96719.62
2018-03-29T18:49:35.847Z,96729.88
2018-03-29T18:52:06.834Z,96729.04
2018-03-29T18:54:37.809Z,96736.06
2018-03-29T18:57:08.811Z,96744.88
2018-03-29T18:59:39.857Z,96747.98
2018-03-29T19:02:10.849Z,96749.70
2018-03-29T19:04:41.849Z,96751.30
2018-03-29T19:07:12.845Z,96757.20
2018-03-29T19:09:43.876Z,96753.36
2018-03-29T19:12:14.881Z,96760.69
2018-03-29T19:14:45.889Z,96759.08
2018-03-29T19:17:16.875Z,96760.80
2018-03-29T19:19:47.866Z,96770.16
2018-03-29T19:22:19.687Z,96772.50
2018-03-29T19:24:50.716Z,96770.36
2018-03-29T19:27:21.696Z,96768.41
2018-03-29T19:29:52.698Z,96769.07
2018-03-29T19:32:23.678Z,96762.61
2018-03-29T19:34:54.642Z,96757.05
2018-03-29T19:37:25.674Z,96751.77
2018-03-29T19:39:56.709Z,96758.34
2018-03-29T19:42:27.673Z,96761.11
2018-03-29T19:44:58.619Z,96761.50
2018-03-29T19:47:29.610Z,96758.23
2018-03-29T19:50:00.605Z,96765.41
2018-03-29T19:52:31.598Z,96764.88
2018-03-29T19:55:02.659Z,96763.06
2018-03-29T19:57:33.672Z,96759.23
2018-03-29T20:00:04.740Z,96760.42
2018-03-29T20:02:35.734Z,96763.98
2018-03-29T20:05:06.753Z,96765.72
2018-03-29T20:07:37.815Z,96769.97
2018-03-29T20:10:08.803Z,96767.91
2018-03-29T20:12:39.843Z,96776.32
2018-03-29T20:15:10.844Z,96774.23
2018-03-29T20:17:41.824Z,96773.69
2018-03-29T20:20:13.786Z,96768.58
2018-03-29T20:22:44.797Z,96773.85
2018-03-29T20:25:15.791Z,96771.11
2018-03-29T20:27:46.792Z,96772.94
2018-03-29T20:30:17.775Z,96775.16
2018-03-29T20:32:48.766Z,96775.77
2018-03-29T20:35:19.734Z,96773.16
2018-03-29T20:37:50.687Z,96774.17
2018-03-29T20:40:21.688Z,96776.81
2018-03-29T20:42:52.702Z,96775.48
2018-03-29T20:45:23.706Z,96768.90
2018-03-29T20:47:54.700Z,96772.31
2018-03-29T20:50:25.699Z,96770.19
2018-03-29T20:52:56.712Z,96765.06
2018-03-29T20:55:27.758Z,96762.67
2018-03-29T20:57:58.749Z,96763.31
2018-03-29T21:00:29.735Z,96761.05
2018-03-29T21:03:00.721Z,96767.38
2018-03-29T21:05:31.744Z,96767.59
2018-03-29T21:08:02.761Z,96773.84
2018-03-29T21:10:33.714Z,96768.57
2018-03-29T21:13:04.672Z,96766.95
2018-03-29T21:15:35.631Z,96768.80
2018-03-29T21:18:06.661Z,96766.02
2018-03-29T21:20:38.587Z,96771.52
2018-03-29T21:23:09.625Z,96773.59
2018-03-29T21:25:40.580Z,96781.87
2018-03-29T21:28:11.592Z,96777.63
2018-03-29T21:30:42.593Z,96784.69
2018-03-29T21:33:13.624Z,96778.16
2018-03-29T21:35:44.649Z,96784.14
2018-03-29T21:38:15.638Z,96786.09
2018-03-29T21:40:46.672Z,96790.13
2018-03-29T21:43:17.692Z,96787.74
2018-03-29T21:45:48.671Z,96779.44
2018-03-29T21:48:19.665Z,96784.10
2018-03-29T21:50:50.691Z,96786.17
2018-03-29T21:53:21.664Z,96782.08
2018-03-29T21:55:52.666Z,96787.05
2018-03-29T21:58:23.633Z,96781.25
2018-03-29T22:00:54.717Z,96780.58
2018-03-29T22:03:25.701Z,96785.78
2018-03-29T22:05:56.750Z,96793.09
2018-03-29T22:08:27.769Z,96787.30
2018-03-29T22:10:58.806Z,96797.75
2018-03-29T22:13:29.857Z,96795.48
2018-03-29T22:16:00.922Z,96789.68
2018-03-29T22:18:31.950Z,96803.54
2018-03-29T22:21:02.958Z,96804.48
2018-03-29T22:23:33.949Z,96808.65
2018-03-29T22:26:04.967Z,96807.42
2018-03-29T22:28:35.952Z,96805.94
2018-03-29T22:31:06.961Z,96812.56
2018-03-29T22:33:38.009Z,96816.40
2018-03-29T22:36:08.953Z,96820.80
2018-03-29T22:38:39.958Z,96828.59
2018-03-29T22:41:10.932Z,96832.80
2018-03-29T22:43:41.920Z,96831.31
2018-03-29T22:46:12.906Z,96837.42
2018-03-29T22:48:43.917Z,96829.95
2018-03-29T22:51:14.923Z,96830.07
2018-03-29T22:53:45.969Z,96839.64
2018-03-29T22:56:16.949Z,96832.75
2018-03-29T22:58:47.903Z,96828.75
2018-03-29T23:01:18.886Z,96824.91
2018-03-29T23:03:49.893Z,96824.91
2018-03-29T23:06:20.874Z,96822.69
2018-03-29T23:08:51.868Z,96821.41
2018-03-29T23:11:22.857Z,96819.89
2018-03-29T23:13:53.811Z,96816.77
2018-03-29T23:16:24.838Z,96824.41
2018-03-29T23:18:55.825Z,96821.72
2018-03-29T23:21:26.829Z,96828.25
2018-03-29T23:23:57.801Z,96831.66
2018-03-29T23:26:28.776Z,96829.16
2018-03-29T23:28:59.750Z,96824.28
2018-03-29T23:31:30.732Z,96823.09
2018-03-29T23:34:01.728Z,96826.22
2018-03-29T23:36:32.700Z,96824.23
2018-03-29T23:39:03.690Z,96822.02
2018-03-29T23:41:34.718Z,96814.95
2018-03-29T23:44:05.814Z,96811.14
2018-03-29T23:46:36.862Z,96814.67
2018-03-29T23:49:07.880Z,96814.55
2018-03-29T23:51:38.907Z,96815.98
2018-03-29T23:54:09.885Z,96820.69
2018-03-29T23:56:40.873Z,96815.56
2018-03-29T23:59:11.888Z,96819.96
